sensor_id;sensor_type;location;lat;lon;timestamp;P1;durP1;ratioP1;P2;durP2;ratioP2
40695;SDS011;40425;51.102;17.208;2023-03-01T00:02:34;113.90;;;50.90;;
40695;SDS011;40425;51.102;17.208;2023-03-01T00:07:35;100.10;;;46.93;;
40695;SDS011;40425;51.102;17.208;2023-03-01T00:12:35;100.13;;;47.67;;
40695;SDS011;40425;51.102;17.208;2023-03-01T00:17:36;69.97;;;33.90;;
40695;SDS011;40425;51.102;17.208;2023-03-01T00:22:37;75.37;;;37.17;;
40695;SDS011;40425;51.102;17.208;2023-03-01T00:27:38;85.67;;;41.53;;
40695;SDS011;40425;51.102;17.208;2023-03-01T00:32:39;84.80;;;38.80;;
40695;SDS011;40425;51.102;17.208;2023-03-01T00:37:40;89.47;;;42.03;;
40695;SDS011;40425;51.102;17.208;2023-03-01T00:42:41;88.43;;;43.10;;
40695;SDS011;40425;51.102;17.208;2023-03-01T00:47:42;97.50;;;46.67;;
40695;SDS011;40425;51.102;17.208;2023-03-01T00:52:43;103.00;;;47.03;;
40695;SDS011;40425;51.102;17.208;2023-03-01T00:57:44;96.97;;;46.67;;
40695;SDS011;40425;51.102;17.208;2023-03-01T01:02:45;98.53;;;45.03;;
40695;SDS011;40425;51.102;17.208;2023-03-01T01:07:47;87.67;;;40.33;;
40695;SDS011;40425;51.102;17.208;2023-03-01T01:12:48;81.27;;;38.00;;
40695;SDS011;40425;51.102;17.208;2023-03-01T01:17:49;100.23;;;47.77;;
40695;SDS011;40425;51.102;17.208;2023-03-01T01:22:50;106.23;;;44.93;;
40695;SDS011;40425;51.102;17.208;2023-03-01T01:27:51;84.53;;;41.93;;
40695;SDS011;40425;51.102;17.208;2023-03-01T01:32:52;105.33;;;45.90;;
40695;SDS011;40425;51.102;17.208;2023-03-01T01:37:53;88.53;;;41.40;;
40695;SDS011;40425;51.102;17.208;2023-03-01T01:42:54;90.87;;;44.03;;
40695;SDS011;40425;51.102;17.208;2023-03-01T01:47:55;96.23;;;43.17;;
40695;SDS011;40425;51.102;17.208;2023-03-01T01:53:23;94.47;;;43.67;;
40695;SDS011;40425;51.102;17.208;2023-03-01T01:58:26;95.73;;;43.33;;
40695;SDS011;40425;51.102;17.208;2023-03-01T02:03:31;99.57;;;43.83;;
40695;SDS011;40425;51.102;17.208;2023-03-01T02:08:37;116.33;;;50.17;;
40695;SDS011;40425;51.102;17.208;2023-03-01T02:13:41;105.63;;;49.57;;
40695;SDS011;40425;51.102;17.208;2023-03-01T02:18:42;120.37;;;49.87;;
40695;SDS011;40425;51.102;17.208;2023-03-01T02:23:44;98.47;;;48.83;;
40695;SDS011;40425;51.102;17.208;2023-03-01T02:28:45;101.87;;;48.20;;
40695;SDS011;40425;51.102;17.208;2023-03-01T02:33:46;103.63;;;48.03;;
40695;SDS011;40425;51.102;17.208;2023-03-01T02:38:51;115.47;;;49.83;;
40695;SDS011;40425;51.102;17.208;2023-03-01T02:43:56;117.53;;;49.77;;
40695;SDS011;40425;51.102;17.208;2023-03-01T02:48:57;93.40;;;44.73;;
40695;SDS011;40425;51.102;17.208;2023-03-01T02:54:11;156.57;;;62.93;;
40695;SDS011;40425;51.102;17.208;2023-03-01T02:59:19;102.70;;;45.63;;
40695;SDS011;40425;51.102;17.208;2023-03-01T03:04:21;101.30;;;44.70;;
40695;SDS011;40425;51.102;17.208;2023-03-01T03:09:23;107.47;;;48.47;;
40695;SDS011;40425;51.102;17.208;2023-03-01T03:14:24;115.60;;;50.87;;
40695;SDS011;40425;51.102;17.208;2023-03-01T03:19:25;113.87;;;50.33;;
40695;SDS011;40425;51.102;17.208;2023-03-01T03:24:25;106.53;;;49.23;;
40695;SDS011;40425;51.102;17.208;2023-03-01T03:29:28;107.33;;;48.57;;
40695;SDS011;40425;51.102;17.208;2023-03-01T03:34:29;111.40;;;50.23;;
40695;SDS011;40425;51.102;17.208;2023-03-01T03:39:30;113.37;;;49.97;;
40695;SDS011;40425;51.102;17.208;2023-03-01T03:44:34;124.97;;;51.53;;
40695;SDS011;40425;51.102;17.208;2023-03-01T03:49:36;114.33;;;50.27;;
40695;SDS011;40425;51.102;17.208;2023-03-01T03:54:37;110.80;;;50.17;;
40695;SDS011;40425;51.102;17.208;2023-03-01T03:59:38;116.07;;;49.33;;
40695;SDS011;40425;51.102;17.208;2023-03-01T04:04:39;119.50;;;50.57;;
40695;SDS011;40425;51.102;17.208;2023-03-01T04:09:40;117.30;;;50.40;;
40695;SDS011;40425;51.102;17.208;2023-03-01T04:14:42;121.00;;;49.73;;
40695;SDS011;40425;51.102;17.208;2023-03-01T04:19:43;110.87;;;49.10;;
40695;SDS011;40425;51.102;17.208;2023-03-01T04:24:48;108.77;;;49.20;;
40695;SDS011;40425;51.102;17.208;2023-03-01T04:29:49;126.63;;;53.57;;
40695;SDS011;40425;51.102;17.208;2023-03-01T04:34:50;103.50;;;47.80;;
40695;SDS011;40425;51.102;17.208;2023-03-01T04:39:51;131.13;;;55.77;;
40695;SDS011;40425;51.102;17.208;2023-03-01T04:44:52;116.13;;;48.13;;
40695;SDS011;40425;51.102;17.208;2023-03-01T04:49:53;104.77;;;49.00;;
40695;SDS011;40425;51.102;17.208;2023-03-01T04:54:54;120.83;;;51.13;;
40695;SDS011;40425;51.102;17.208;2023-03-01T04:59:55;105.67;;;47.17;;
40695;SDS011;40425;51.102;17.208;2023-03-01T05:04:56;107.53;;;49.17;;
40695;SDS011;40425;51.102;17.208;2023-03-01T05:09:57;114.33;;;49.10;;
40695;SDS011;40425;51.102;17.208;2023-03-01T05:14:58;104.70;;;48.23;;
40695;SDS011;40425;51.102;17.208;2023-03-01T05:19:59;115.90;;;51.27;;
40695;SDS011;40425;51.102;17.208;2023-03-01T05:25:01;110.87;;;50.33;;
40695;SDS011;40425;51.102;17.208;2023-03-01T05:30:03;113.17;;;47.77;;
40695;SDS011;40425;51.102;17.208;2023-03-01T05:40:15;107.87;;;46.07;;
40695;SDS011;40425;51.102;17.208;2023-03-01T05:45:22;110.43;;;48.57;;
40695;SDS011;40425;51.102;17.208;2023-03-01T05:50:26;117.83;;;49.87;;
40695;SDS011;40425;51.102;17.208;2023-03-01T05:55:29;109.47;;;48.40;;
40695;SDS011;40425;51.102;17.208;2023-03-01T06:00:31;111.90;;;51.87;;
40695;SDS011;40425;51.102;17.208;2023-03-01T06:05:32;110.17;;;52.20;;
40695;SDS011;40425;51.102;17.208;2023-03-01T06:10:33;110.47;;;50.63;;
40695;SDS011;40425;51.102;17.208;2023-03-01T06:15:34;111.90;;;49.77;;
40695;SDS011;40425;51.102;17.208;2023-03-01T06:20:35;106.73;;;49.53;;
40695;SDS011;40425;51.102;17.208;2023-03-01T06:25:36;111.67;;;50.87;;
40695;SDS011;40425;51.102;17.208;2023-03-01T06:30:37;110.73;;;51.30;;
40695;SDS011;40425;51.102;17.208;2023-03-01T06:35:38;112.73;;;55.70;;
40695;SDS011;40425;51.102;17.208;2023-03-01T06:40:39;106.23;;;51.00;;
40695;SDS011;40425;51.102;17.208;2023-03-01T06:45:40;116.37;;;54.17;;
40695;SDS011;40425;51.102;17.208;2023-03-01T06:50:43;127.87;;;58.10;;
40695;SDS011;40425;51.102;17.208;2023-03-01T06:55:45;131.07;;;60.07;;
40695;SDS011;40425;51.102;17.208;2023-03-01T07:00:45;118.23;;;55.70;;
40695;SDS011;40425;51.102;17.208;2023-03-01T07:05:49;95.80;;;46.53;;
40695;SDS011;40425;51.102;17.208;2023-03-01T07:10:57;101.97;;;50.07;;
40695;SDS011;40425;51.102;17.208;2023-03-01T07:15:58;93.43;;;47.00;;
40695;SDS011;40425;51.102;17.208;2023-03-01T07:51:49;77.60;;;39.23;;
40695;SDS011;40425;51.102;17.208;2023-03-01T07:56:50;77.40;;;38.40;;
40695;SDS011;40425;51.102;17.208;2023-03-01T08:01:51;75.10;;;37.83;;
40695;SDS011;40425;51.102;17.208;2023-03-01T08:06:53;89.50;;;42.57;;
40695;SDS011;40425;51.102;17.208;2023-03-01T08:11:56;81.77;;;42.40;;
40695;SDS011;40425;51.102;17.208;2023-03-01T08:16:59;70.53;;;39.70;;
40695;SDS011;40425;51.102;17.208;2023-03-01T08:22:03;71.73;;;36.83;;
40695;SDS011;40425;51.102;17.208;2023-03-01T08:27:04;58.67;;;31.70;;
40695;SDS011;40425;51.102;17.208;2023-03-01T08:32:05;57.57;;;31.93;;
40695;SDS011;40425;51.102;17.208;2023-03-01T08:37:06;61.10;;;32.47;;
40695;SDS011;40425;51.102;17.208;2023-03-01T08:42:07;63.97;;;34.20;;
40695;SDS011;40425;51.102;17.208;2023-03-01T08:47:09;50.87;;;29.47;;
40695;SDS011;40425;51.102;17.208;2023-03-01T08:52:09;64.20;;;30.13;;
40695;SDS011;40425;51.102;17.208;2023-03-01T08:57:10;49.37;;;26.53;;
40695;SDS011;40425;51.102;17.208;2023-03-01T09:02:14;43.23;;;22.93;;
40695;SDS011;40425;51.102;17.208;2023-03-01T09:07:17;45.13;;;23.53;;
40695;SDS011;40425;51.102;17.208;2023-03-01T09:12:18;38.13;;;21.10;;
40695;SDS011;40425;51.102;17.208;2023-03-01T09:17:18;21.10;;;11.80;;
40695;SDS011;40425;51.102;17.208;2023-03-01T09:22:21;39.90;;;19.73;;
40695;SDS011;40425;51.102;17.208;2023-03-01T09:27:22;35.80;;;20.33;;
40695;SDS011;40425;51.102;17.208;2023-03-01T09:32:24;36.10;;;19.77;;
40695;SDS011;40425;51.102;17.208;2023-03-01T09:37:26;38.53;;;17.30;;
40695;SDS011;40425;51.102;17.208;2023-03-01T09:42:27;29.93;;;18.23;;
40695;SDS011;40425;51.102;17.208;2023-03-01T09:47:32;30.63;;;17.20;;
40695;SDS011;40425;51.102;17.208;2023-03-01T09:52:46;29.47;;;16.17;;
40695;SDS011;40425;51.102;17.208;2023-03-01T09:57:50;31.53;;;17.67;;
40695;SDS011;40425;51.102;17.208;2023-03-01T10:03:06;32.07;;;17.53;;
40695;SDS011;40425;51.102;17.208;2023-03-01T10:13:33;25.70;;;15.03;;
40695;SDS011;40425;51.102;17.208;2023-03-01T10:18:36;28.00;;;14.77;;
40695;SDS011;40425;51.102;17.208;2023-03-01T10:23:38;19.73;;;12.07;;
40695;SDS011;40425;51.102;17.208;2023-03-01T10:34:11;28.00;;;14.93;;
40695;SDS011;40425;51.102;17.208;2023-03-01T10:39:20;26.57;;;15.10;;
40695;SDS011;40425;51.102;17.208;2023-03-01T10:44:43;28.50;;;15.20;;
40695;SDS011;40425;51.102;17.208;2023-03-01T10:49:51;28.13;;;16.23;;
40695;SDS011;40425;51.102;17.208;2023-03-01T10:55:43;26.93;;;14.30;;
40695;SDS011;40425;51.102;17.208;2023-03-01T11:00:28;23.30;;;12.50;;
40695;SDS011;40425;51.102;17.208;2023-03-01T11:05:29;20.57;;;12.13;;
40695;SDS011;40425;51.102;17.208;2023-03-01T11:10:34;21.53;;;12.57;;
40695;SDS011;40425;51.102;17.208;2023-03-01T11:15:36;22.50;;;13.70;;
40695;SDS011;40425;51.102;17.208;2023-03-01T11:20:37;23.33;;;14.27;;
40695;SDS011;40425;51.102;17.208;2023-03-01T11:25:39;26.77;;;14.43;;
40695;SDS011;40425;51.102;17.208;2023-03-01T11:30:51;27.67;;;15.90;;
40695;SDS011;40425;51.102;17.208;2023-03-01T11:41:17;30.43;;;17.00;;
40695;SDS011;40425;51.102;17.208;2023-03-01T11:46:31;27.90;;;15.90;;
40695;SDS011;40425;51.102;17.208;2023-03-01T11:56:46;22.33;;;13.77;;
40695;SDS011;40425;51.102;17.208;2023-03-01T12:07:07;25.10;;;14.93;;
40695;SDS011;40425;51.102;17.208;2023-03-01T12:17:49;17.90;;;9.53;;
40695;SDS011;40425;51.102;17.208;2023-03-01T12:33:44;16.17;;;8.63;;
40695;SDS011;40425;51.102;17.208;2023-03-01T12:38:49;15.60;;;9.00;;
40695;SDS011;40425;51.102;17.208;2023-03-01T12:44:46;14.93;;;8.10;;
40695;SDS011;40425;51.102;17.208;2023-03-01T12:49:48;14.57;;;7.27;;
40695;SDS011;40425;51.102;17.208;2023-03-01T12:54:58;11.40;;;7.63;;
40695;SDS011;40425;51.102;17.208;2023-03-01T13:11:22;14.33;;;7.67;;
40695;SDS011;40425;51.102;17.208;2023-03-01T13:21:30;15.80;;;8.73;;
40695;SDS011;40425;51.102;17.208;2023-03-01T13:26:31;17.03;;;8.70;;
40695;SDS011;40425;51.102;17.208;2023-03-01T13:37:33;15.00;;;9.13;;
40695;SDS011;40425;51.102;17.208;2023-03-01T13:42:43;17.33;;;10.40;;
40695;SDS011;40425;51.102;17.208;2023-03-01T13:47:47;19.48;;;9.20;;
40695;SDS011;40425;51.102;17.208;2023-03-01T13:52:59;16.00;;;9.70;;
40695;SDS011;40425;51.102;17.208;2023-03-01T13:58:04;16.83;;;9.23;;
40695;SDS011;40425;51.102;17.208;2023-03-01T14:08:42;19.97;;;10.17;;
40695;SDS011;40425;51.102;17.208;2023-03-01T14:18:55;19.90;;;9.87;;
40695;SDS011;40425;51.102;17.208;2023-03-01T14:24:17;19.47;;;10.13;;
40695;SDS011;40425;51.102;17.208;2023-03-01T14:29:27;16.83;;;8.50;;
40695;SDS011;40425;51.102;17.208;2023-03-01T14:34:35;16.43;;;9.47;;
40695;SDS011;40425;51.102;17.208;2023-03-01T14:39:42;14.13;;;8.50;;
40695;SDS011;40425;51.102;17.208;2023-03-01T14:44:43;18.10;;;10.77;;
40695;SDS011;40425;51.102;17.208;2023-03-01T14:49:47;15.10;;;8.63;;
40695;SDS011;40425;51.102;17.208;2023-03-01T14:54:53;15.70;;;9.00;;
40695;SDS011;40425;51.102;17.208;2023-03-01T14:59:55;15.17;;;8.67;;
40695;SDS011;40425;51.102;17.208;2023-03-01T15:05:01;18.70;;;9.47;;
40695;SDS011;40425;51.102;17.208;2023-03-01T15:10:12;18.20;;;9.23;;
40695;SDS011;40425;51.102;17.208;2023-03-01T15:20:31;18.57;;;9.27;;
40695;SDS011;40425;51.102;17.208;2023-03-01T15:25:36;15.17;;;8.50;;
40695;SDS011;40425;51.102;17.208;2023-03-01T15:30:38;14.87;;;8.90;;
40695;SDS011;40425;51.102;17.208;2023-03-01T15:35:43;18.53;;;10.00;;
40695;SDS011;40425;51.102;17.208;2023-03-01T15:40:50;16.17;;;9.80;;
40695;SDS011;40425;51.102;17.208;2023-03-01T15:45:57;18.97;;;10.47;;
40695;SDS011;40425;51.102;17.208;2023-03-01T15:50:58;20.70;;;12.20;;
40695;SDS011;40425;51.102;17.208;2023-03-01T15:56:01;20.33;;;11.83;;
40695;SDS011;40425;51.102;17.208;2023-03-01T16:01:02;19.53;;;11.37;;
40695;SDS011;40425;51.102;17.208;2023-03-01T16:06:03;19.63;;;11.93;;
40695;SDS011;40425;51.102;17.208;2023-03-01T16:11:04;21.13;;;13.10;;
40695;SDS011;40425;51.102;17.208;2023-03-01T16:16:12;19.77;;;12.20;;
40695;SDS011;40425;51.102;17.208;2023-03-01T16:21:18;22.87;;;13.07;;
40695;SDS011;40425;51.102;17.208;2023-03-01T16:26:21;20.17;;;11.27;;
40695;SDS011;40425;51.102;17.208;2023-03-01T16:31:22;20.43;;;12.13;;
40695;SDS011;40425;51.102;17.208;2023-03-01T16:36:26;18.30;;;11.97;;
40695;SDS011;40425;51.102;17.208;2023-03-01T16:41:32;21.00;;;12.00;;
40695;SDS011;40425;51.102;17.208;2023-03-01T16:46:32;24.77;;;12.93;;
40695;SDS011;40425;51.102;17.208;2023-03-01T16:51:34;22.60;;;13.17;;
40695;SDS011;40425;51.102;17.208;2023-03-01T16:56:36;25.77;;;14.97;;
40695;SDS011;40425;51.102;17.208;2023-03-01T17:01:38;23.53;;;12.97;;
40695;SDS011;40425;51.102;17.208;2023-03-01T17:06:41;22.80;;;13.27;;
40695;SDS011;40425;51.102;17.208;2023-03-01T17:11:41;29.47;;;15.07;;
40695;SDS011;40425;51.102;17.208;2023-03-01T17:16:43;41.37;;;18.57;;
40695;SDS011;40425;51.102;17.208;2023-03-01T17:21:45;37.63;;;19.17;;
40695;SDS011;40425;51.102;17.208;2023-03-01T17:26:46;38.07;;;20.00;;
40695;SDS011;40425;51.102;17.208;2023-03-01T17:31:47;32.70;;;17.47;;
40695;SDS011;40425;51.102;17.208;2023-03-01T17:36:47;85.00;;;41.93;;
40695;SDS011;40425;51.102;17.208;2023-03-01T17:41:51;33.73;;;17.10;;
40695;SDS011;40425;51.102;17.208;2023-03-01T17:46:52;33.27;;;17.80;;
40695;SDS011;40425;51.102;17.208;2023-03-01T17:51:53;51.07;;;29.13;;
40695;SDS011;40425;51.102;17.208;2023-03-01T17:56:55;44.10;;;22.33;;
40695;SDS011;40425;51.102;17.208;2023-03-01T18:01:58;41.63;;;19.87;;
40695;SDS011;40425;51.102;17.208;2023-03-01T18:07:00;40.43;;;20.90;;
40695;SDS011;40425;51.102;17.208;2023-03-01T18:12:01;38.30;;;20.00;;
40695;SDS011;40425;51.102;17.208;2023-03-01T18:17:02;32.90;;;17.20;;
40695;SDS011;40425;51.102;17.208;2023-03-01T18:22:11;47.97;;;24.73;;
40695;SDS011;40425;51.102;17.208;2023-03-01T18:27:13;58.40;;;29.17;;
40695;SDS011;40425;51.102;17.208;2023-03-01T18:32:14;64.90;;;30.70;;
40695;SDS011;40425;51.102;17.208;2023-03-01T18:37:15;84.27;;;37.93;;
40695;SDS011;40425;51.102;17.208;2023-03-01T18:42:17;87.70;;;40.90;;
40695;SDS011;40425;51.102;17.208;2023-03-01T18:47:19;90.87;;;42.10;;
40695;SDS011;40425;51.102;17.208;2023-03-01T18:52:20;96.80;;;42.97;;
40695;SDS011;40425;51.102;17.208;2023-03-01T18:57:21;93.03;;;40.77;;
40695;SDS011;40425;51.102;17.208;2023-03-01T19:02:22;116.57;;;49.57;;
40695;SDS011;40425;51.102;17.208;2023-03-01T19:07:23;120.37;;;48.20;;
40695;SDS011;40425;51.102;17.208;2023-03-01T19:12:25;76.10;;;35.70;;
40695;SDS011;40425;51.102;17.208;2023-03-01T19:17:28;68.83;;;29.10;;
40695;SDS011;40425;51.102;17.208;2023-03-01T19:22:30;77.10;;;37.83;;
40695;SDS011;40425;51.102;17.208;2023-03-01T19:27:31;59.97;;;30.00;;
40695;SDS011;40425;51.102;17.208;2023-03-01T19:32:32;69.30;;;32.20;;
40695;SDS011;40425;51.102;17.208;2023-03-01T19:37:34;79.73;;;34.73;;
40695;SDS011;40425;51.102;17.208;2023-03-01T19:42:36;123.93;;;55.33;;
40695;SDS011;40425;51.102;17.208;2023-03-01T19:47:38;97.47;;;46.03;;
40695;SDS011;40425;51.102;17.208;2023-03-01T19:52:40;103.87;;;43.47;;
40695;SDS011;40425;51.102;17.208;2023-03-01T19:57:42;116.83;;;47.50;;
40695;SDS011;40425;51.102;17.208;2023-03-01T20:02:44;106.20;;;46.33;;
40695;SDS011;40425;51.102;17.208;2023-03-01T20:07:48;89.73;;;39.63;;
40695;SDS011;40425;51.102;17.208;2023-03-01T20:12:50;80.97;;;37.77;;
40695;SDS011;40425;51.102;17.208;2023-03-01T20:22:53;89.70;;;40.63;;
40695;SDS011;40425;51.102;17.208;2023-03-01T20:27:54;88.43;;;42.37;;
40695;SDS011;40425;51.102;17.208;2023-03-01T20:32:55;103.17;;;42.67;;
40695;SDS011;40425;51.102;17.208;2023-03-01T20:37:56;101.90;;;43.23;;
40695;SDS011;40425;51.102;17.208;2023-03-01T20:42:58;93.93;;;42.40;;
40695;SDS011;40425;51.102;17.208;2023-03-01T20:47:59;89.63;;;41.03;;
40695;SDS011;40425;51.102;17.208;2023-03-01T20:53:00;82.93;;;38.17;;
40695;SDS011;40425;51.102;17.208;2023-03-01T20:58:01;86.57;;;39.40;;
40695;SDS011;40425;51.102;17.208;2023-03-01T21:03:02;159.73;;;71.13;;
40695;SDS011;40425;51.102;17.208;2023-03-01T21:08:03;145.10;;;63.53;;
40695;SDS011;40425;51.102;17.208;2023-03-01T21:13:04;133.80;;;59.30;;
40695;SDS011;40425;51.102;17.208;2023-03-01T21:18:05;105.47;;;51.13;;
40695;SDS011;40425;51.102;17.208;2023-03-01T21:23:06;96.67;;;46.43;;
40695;SDS011;40425;51.102;17.208;2023-03-01T21:28:07;96.57;;;50.27;;
40695;SDS011;40425;51.102;17.208;2023-03-01T21:33:08;113.17;;;49.73;;
40695;SDS011;40425;51.102;17.208;2023-03-01T21:38:09;103.30;;;46.63;;
40695;SDS011;40425;51.102;17.208;2023-03-01T21:43:09;104.67;;;49.13;;
40695;SDS011;40425;51.102;17.208;2023-03-01T21:48:10;92.43;;;44.50;;
40695;SDS011;40425;51.102;17.208;2023-03-01T21:53:11;105.77;;;49.40;;
40695;SDS011;40425;51.102;17.208;2023-03-01T21:58:12;100.20;;;48.13;;
40695;SDS011;40425;51.102;17.208;2023-03-01T22:03:13;108.33;;;53.50;;
40695;SDS011;40425;51.102;17.208;2023-03-01T22:08:14;107.20;;;49.13;;
40695;SDS011;40425;51.102;17.208;2023-03-01T22:13:16;87.97;;;43.67;;
40695;SDS011;40425;51.102;17.208;2023-03-01T22:18:17;112.60;;;54.53;;
40695;SDS011;40425;51.102;17.208;2023-03-01T22:23:18;142.50;;;68.03;;
40695;SDS011;40425;51.102;17.208;2023-03-01T22:28:19;101.10;;;50.77;;
40695;SDS011;40425;51.102;17.208;2023-03-01T22:33:19;121.60;;;56.47;;
40695;SDS011;40425;51.102;17.208;2023-03-01T22:38:21;296.77;;;110.60;;
40695;SDS011;40425;51.102;17.208;2023-03-01T22:43:22;228.10;;;93.13;;
40695;SDS011;40425;51.102;17.208;2023-03-01T22:48:23;178.40;;;79.63;;
40695;SDS011;40425;51.102;17.208;2023-03-01T22:53:24;183.50;;;81.63;;
40695;SDS011;40425;51.102;17.208;2023-03-01T22:58:25;204.80;;;88.27;;
40695;SDS011;40425;51.102;17.208;2023-03-01T23:03:26;148.43;;;71.10;;
40695;SDS011;40425;51.102;17.208;2023-03-01T23:08:26;157.70;;;72.90;;
40695;SDS011;40425;51.102;17.208;2023-03-01T23:13:27;138.57;;;66.77;;
40695;SDS011;40425;51.102;17.208;2023-03-01T23:18:28;131.73;;;61.60;;
40695;SDS011;40425;51.102;17.208;2023-03-01T23:23:29;138.23;;;63.27;;
40695;SDS011;40425;51.102;17.208;2023-03-01T23:28:30;135.57;;;62.63;;
40695;SDS011;40425;51.102;17.208;2023-03-01T23:33:32;152.73;;;65.33;;
40695;SDS011;40425;51.102;17.208;2023-03-01T23:38:37;142.03;;;66.07;;
40695;SDS011;40425;51.102;17.208;2023-03-01T23:43:38;137.03;;;57.57;;
40695;SDS011;40425;51.102;17.208;2023-03-01T23:48:41;123.97;;;57.07;;
40695;SDS011;40425;51.102;17.208;2023-03-01T23:53:43;128.33;;;58.47;;
40695;SDS011;40425;51.102;17.208;2023-03-01T23:58:53;130.00;;;61.17;;
